createdAt,value
2018-12-27T00:00:15.713Z,40.10
2018-12-27T00:02:30.653Z,38.60
2018-12-27T00:04:45.840Z,38.00
2018-12-27T00:07:00.440Z,36.70
2018-12-27T00:09:15.525Z,36.10
2018-12-27T00:11:30.509Z,37.63
2018-12-27T00:13:45.400Z,39.73
2018-12-27T00:16:00.364Z,38.07
2018-12-27T00:18:15.316Z,35.97
2018-12-27T00:20:30.397Z,36.20
2018-12-27T00:22:45.109Z,35.70
2018-12-27T00:24:59.841Z,36.23
2018-12-27T00:27:14.777Z,36.83
2018-12-27T00:29:29.980Z,35.37
2018-12-27T00:31:44.888Z,34.60
2018-12-27T00:33:59.836Z,34.30
2018-12-27T00:36:14.453Z,35.53
2018-12-27T00:38:29.577Z,34.97
2018-12-27T00:40:44.172Z,33.03
2018-12-27T00:43:00.021Z,34.80
2018-12-27T00:45:14.910Z,34.67
2018-12-27T00:47:29.800Z,32.20
2018-12-27T00:49:44.768Z,37.03
2018-12-27T00:51:59.625Z,34.50
2018-12-27T00:54:14.920Z,31.37
2018-12-27T00:56:29.561Z,33.07
2018-12-27T00:58:44.834Z,33.60
2018-12-27T01:00:59.428Z,35.50
2018-12-27T01:03:14.420Z,33.40
2018-12-27T01:05:29.276Z,34.43
2018-12-27T01:07:44.360Z,33.07
2018-12-27T01:09:59.117Z,28.73
2018-12-27T01:12:13.972Z,32.77
2018-12-27T01:14:29.056Z,34.07
2018-12-27T01:16:43.968Z,32.27
2018-12-27T01:18:59.012Z,32.20
2018-12-27T01:21:13.888Z,32.93
2018-12-27T01:23:28.369Z,32.33
2018-12-27T01:25:43.072Z,32.40
2018-12-27T01:27:58.164Z,31.80
2018-12-27T01:30:12.992Z,28.47
2018-12-27T01:32:27.852Z,32.40
2018-12-27T01:34:42.917Z,31.37
2018-12-27T01:36:58.104Z,29.13
2018-12-27T01:39:12.717Z,28.03
2018-12-27T01:41:27.779Z,29.73
2018-12-27T01:43:42.683Z,28.97
2018-12-27T01:48:37.769Z,27.50
2018-12-27T01:50:52.944Z,29.80
2018-12-27T01:53:07.662Z,28.40
2018-12-27T01:55:22.552Z,27.53
2018-12-27T01:57:37.312Z,26.73
2018-12-27T01:59:52.216Z,28.20
2018-12-27T02:02:07.104Z,26.90
2018-12-27T02:04:21.363Z,25.37
2018-12-27T02:06:36.297Z,26.90
2018-12-27T02:08:51.209Z,27.00
2018-12-27T02:11:06.268Z,22.63
2018-12-27T02:13:21.328Z,19.07
2018-12-27T02:15:36.080Z,24.00
2018-12-27T02:17:51.084Z,25.10
2018-12-27T02:20:06.081Z,23.60
2018-12-27T02:22:21.196Z,24.30
2018-12-27T02:24:36.045Z,22.97
2018-12-27T02:26:50.753Z,20.40
2018-12-27T02:29:05.660Z,19.20
2018-12-27T02:31:19.820Z,25.70
2018-12-27T02:33:35.584Z,23.10
2018-12-27T02:35:50.680Z,23.60
2018-12-27T02:38:05.708Z,23.00
2018-12-27T02:40:20.653Z,21.47
2018-12-27T02:42:35.860Z,21.30
2018-12-27T02:44:50.461Z,21.57
2018-12-27T02:47:05.440Z,23.60
2018-12-27T02:49:20.549Z,23.37
2018-12-27T02:51:35.738Z,22.83
2018-12-27T02:53:50.254Z,23.27
2018-12-27T02:56:05.366Z,23.67
2018-12-27T02:58:20.137Z,21.50
2018-12-27T03:00:34.788Z,20.77
2018-12-27T03:02:49.851Z,23.57
2018-12-27T03:05:04.961Z,20.33
2018-12-27T03:07:19.803Z,20.60
2018-12-27T03:09:34.704Z,21.83
2018-12-27T03:11:49.734Z,20.90
2018-12-27T03:14:04.622Z,19.97
2018-12-27T03:16:19.687Z,20.27
2018-12-27T03:18:34.759Z,17.43
2018-12-27T03:20:49.685Z,18.37
2018-12-27T03:23:04.684Z,18.03
2018-12-27T03:25:19.681Z,16.10
2018-12-27T03:27:35.048Z,19.37
2018-12-27T03:29:50.328Z,17.30
2018-12-27T03:32:05.142Z,17.63
2018-12-27T03:34:20.180Z,16.73
2018-12-27T03:36:35.500Z,14.83
2018-12-27T03:38:50.041Z,15.50
2018-12-27T03:41:04.978Z,16.23
2018-12-27T03:46:00.249Z,16.50
2018-12-27T03:48:15.232Z,13.40
2018-12-27T03:50:29.908Z,14.30
2018-12-27T03:52:45.172Z,15.17
2018-12-27T03:54:59.848Z,13.60
2018-12-27T03:57:14.880Z,13.37
2018-12-27T03:59:29.874Z,14.37
2018-12-27T04:01:44.812Z,13.30
2018-12-27T04:04:01.523Z,11.83
2018-12-27T04:06:16.550Z,14.10
2018-12-27T04:08:31.713Z,15.60
2018-12-27T04:10:46.577Z,13.13
2018-12-27T04:13:01.432Z,12.17
2018-12-27T04:15:16.357Z,12.20
2018-12-27T04:17:31.218Z,12.63
2018-12-27T04:19:46.180Z,12.77
2018-12-27T04:22:01.213Z,12.97
2018-12-27T04:24:18.232Z,13.83
2018-12-27T04:26:32.939Z,13.93
2018-12-27T04:31:34.748Z,12.23
2018-12-27T04:33:49.409Z,13.73
2018-12-27T04:36:04.135Z,13.90
2018-12-27T04:38:19.216Z,12.70
2018-12-27T04:40:33.992Z,12.40
2018-12-27T04:42:48.800Z,12.50
2018-12-27T04:45:03.582Z,13.60
2018-12-27T04:47:18.598Z,13.80
2018-12-27T04:49:33.510Z,12.43
2018-12-27T04:51:48.420Z,12.20
2018-12-27T04:54:03.623Z,12.50
2018-12-27T04:56:18.271Z,11.97
2018-12-27T04:58:33.283Z,11.53
2018-12-27T05:00:47.973Z,10.70
2018-12-27T05:03:03.034Z,12.47
2018-12-27T05:05:17.788Z,12.97
2018-12-27T05:07:32.541Z,11.50
2018-12-27T05:09:47.083Z,12.23
2018-12-27T05:12:02.215Z,12.90
2018-12-27T05:14:17.507Z,12.37
2018-12-27T05:16:32.337Z,12.90
2018-12-27T05:18:46.905Z,13.37
2018-12-27T05:21:01.717Z,13.10
2018-12-27T05:23:17.024Z,13.47
2018-12-27T05:25:31.808Z,12.27
2018-12-27T05:27:46.666Z,13.27
2018-12-27T05:30:01.549Z,11.90
2018-12-27T05:32:16.601Z,12.60
2018-12-27T05:34:30.737Z,12.10
2018-12-27T05:36:45.567Z,12.17
2018-12-27T05:39:00.293Z,13.07
2018-12-27T05:41:15.104Z,12.60
2018-12-27T05:43:30.033Z,12.90
2018-12-27T05:45:44.832Z,11.83
2018-12-27T05:48:00.106Z,13.33
2018-12-27T05:50:14.593Z,14.80
2018-12-27T05:52:29.948Z,13.80
2018-12-27T05:54:44.549Z,13.33
2018-12-27T05:56:59.632Z,13.93
2018-12-27T05:59:14.764Z,14.50
2018-12-27T06:01:29.713Z,11.33
2018-12-27T06:03:44.313Z,12.60
2018-12-27T06:05:59.409Z,13.10
2018-12-27T06:08:13.992Z,13.87
2018-12-27T06:10:28.956Z,11.97
2018-12-27T06:12:43.932Z,13.23
2018-12-27T06:14:58.928Z,13.00
2018-12-27T06:17:13.781Z,14.13
2018-12-27T06:19:28.838Z,13.30
2018-12-27T06:21:43.746Z,12.83
2018-12-27T06:23:58.585Z,12.90
2018-12-27T06:29:00.740Z,12.37
2018-12-27T06:31:15.789Z,13.30
2018-12-27T06:33:30.834Z,12.40
2018-12-27T06:35:45.448Z,13.30
2018-12-27T06:43:27.514Z,12.00
2018-12-27T06:45:42.596Z,13.93
2018-12-27T06:47:57.431Z,13.37
2018-12-27T06:50:12.261Z,12.17
2018-12-27T06:52:27.441Z,13.73
2018-12-27T06:54:41.932Z,12.30
2018-12-27T06:56:56.716Z,13.17
2018-12-27T06:59:11.540Z,13.67
2018-12-27T07:01:26.352Z,11.73
2018-12-27T07:03:41.308Z,13.27
2018-12-27T07:05:56.263Z,13.40
2018-12-27T07:08:11.284Z,14.10
2018-12-27T07:10:26.313Z,13.80
2018-12-27T07:12:41.332Z,13.80
2018-12-27T07:14:56.223Z,13.30
2018-12-27T07:17:11.330Z,13.47
2018-12-27T07:19:26.086Z,11.77
2018-12-27T07:21:41.136Z,14.00
2018-12-27T07:23:55.829Z,13.53
2018-12-27T07:26:11.141Z,13.40
2018-12-27T07:28:25.933Z,12.90
2018-12-27T07:33:21.085Z,12.20
2018-12-27T07:35:35.984Z,13.10
2018-12-27T07:37:50.923Z,13.53
2018-12-27T07:40:05.784Z,14.13
2018-12-27T07:42:20.790Z,12.43
2018-12-27T07:44:36.081Z,13.60
2018-12-27T07:49:31.672Z,14.30
2018-12-27T07:51:46.776Z,14.70
2018-12-27T07:54:01.897Z,13.90
2018-12-27T07:56:16.764Z,14.73
2018-12-27T07:58:31.411Z,13.93
2018-12-27T08:00:46.444Z,15.53
2018-12-27T08:03:01.524Z,12.77
2018-12-27T08:05:16.089Z,14.13
2018-12-27T08:07:31.609Z,14.50
2018-12-27T08:09:46.001Z,16.43
2018-12-27T08:12:01.065Z,14.57
2018-12-27T08:14:15.697Z,14.00
2018-12-27T08:16:30.432Z,13.10
2018-12-27T08:18:45.429Z,15.87
2018-12-27T08:21:00.408Z,15.90
2018-12-27T08:23:15.319Z,14.50
2018-12-27T08:25:30.296Z,14.33
2018-12-27T08:27:45.120Z,14.40
2018-12-27T08:30:00.348Z,15.87
2018-12-27T08:32:15.182Z,15.63
2018-12-27T08:34:30.249Z,15.73
2018-12-27T08:36:45.196Z,16.00
2018-12-27T08:39:00.181Z,15.00
2018-12-27T08:41:15.137Z,16.00
2018-12-27T08:43:29.934Z,16.30
2018-12-27T08:45:44.849Z,15.80
2018-12-27T08:47:59.913Z,14.27
2018-12-27T08:50:14.904Z,15.67
2018-12-27T08:52:29.676Z,13.33
2018-12-27T08:54:44.594Z,14.93
2018-12-27T08:56:59.624Z,14.90
2018-12-27T08:59:14.566Z,15.00
2018-12-27T09:01:29.184Z,15.00
2018-12-27T09:03:43.844Z,15.40
2018-12-27T09:05:58.646Z,16.20
2018-12-27T09:08:13.852Z,14.20
2018-12-27T09:10:28.757Z,16.07
2018-12-27T09:18:04.742Z,14.53
2018-12-27T09:20:19.678Z,14.27
2018-12-27T09:22:34.628Z,13.90
2018-12-27T09:24:49.476Z,13.30
2018-12-27T09:27:03.645Z,15.33
2018-12-27T09:29:17.784Z,15.13
2018-12-27T09:31:32.092Z,13.00
2018-12-27T09:33:46.944Z,13.27
2018-12-27T09:36:02.209Z,13.93
2018-12-27T09:38:16.568Z,13.40
2018-12-27T09:40:31.516Z,14.13
2018-12-27T09:42:50.124Z,14.23
2018-12-27T09:45:04.497Z,14.60
2018-12-27T09:47:19.348Z,14.23
2018-12-27T09:49:34.356Z,12.93
2018-12-27T09:51:49.324Z,13.13
2018-12-27T09:54:04.280Z,12.73
2018-12-27T09:56:19.256Z,13.93
2018-12-27T09:58:33.996Z,13.63
2018-12-27T10:00:48.987Z,12.77
2018-12-27T10:03:04.104Z,13.30
2018-12-27T10:05:19.036Z,12.57
2018-12-27T10:07:34.057Z,13.47
2018-12-27T10:09:48.937Z,13.57
2018-12-27T10:12:03.725Z,12.67
2018-12-27T10:14:18.643Z,12.87
2018-12-27T10:19:20.653Z,12.50
2018-12-27T10:21:35.357Z,11.67
2018-12-27T10:23:50.528Z,11.80
2018-12-27T10:26:05.049Z,11.20
2018-12-27T10:28:19.964Z,12.10
2018-12-27T10:30:35.153Z,12.97
2018-12-27T10:32:50.097Z,11.77
2018-12-27T10:35:04.782Z,12.60
2018-12-27T10:37:19.820Z,12.17
2018-12-27T10:39:34.757Z,11.40
2018-12-27T10:41:49.708Z,10.30
2018-12-27T10:44:04.789Z,10.33
2018-12-27T10:46:20.120Z,11.27
2018-12-27T10:48:34.829Z,9.80
2018-12-27T10:50:49.873Z,10.70
2018-12-27T10:53:04.397Z,9.60
2018-12-27T10:55:19.197Z,9.50
2018-12-27T10:57:34.859Z,9.70
2018-12-27T10:59:49.211Z,10.27
2018-12-27T11:02:04.181Z,11.90
2018-12-27T11:04:19.250Z,12.23
2018-12-27T11:06:34.105Z,11.53
2018-12-27T11:08:48.981Z,10.57
2018-12-27T11:11:03.845Z,12.10
2018-12-27T11:13:18.817Z,11.43
2018-12-27T11:15:33.742Z,10.80
2018-12-27T11:17:48.816Z,10.73
2018-12-27T11:20:03.692Z,10.70
2018-12-27T11:22:18.724Z,9.73
2018-12-27T11:24:33.740Z,10.37
2018-12-27T11:32:16.267Z,9.97
2018-12-27T11:34:31.160Z,10.07
2018-12-27T11:36:46.112Z,9.80
2018-12-27T11:41:47.849Z,10.63
2018-12-27T11:44:02.789Z,10.30
2018-12-27T11:46:17.777Z,9.97
2018-12-27T11:48:32.448Z,9.83
2018-12-27T11:50:47.384Z,12.00
2018-12-27T11:53:02.317Z,10.33
2018-12-27T11:55:17.365Z,10.97
2018-12-27T11:57:32.196Z,10.97
2018-12-27T11:59:47.080Z,10.97
2018-12-27T12:02:02.025Z,12.73
2018-12-27T12:04:17.149Z,10.57
2018-12-27T12:06:31.832Z,12.50
2018-12-27T12:08:46.913Z,11.07
2018-12-27T12:11:01.912Z,11.70
2018-12-27T12:16:03.833Z,12.03
2018-12-27T12:18:19.040Z,12.20
2018-12-27T12:20:33.592Z,12.30
2018-12-27T12:22:48.569Z,10.10
2018-12-27T12:25:03.454Z,10.93
2018-12-27T12:27:18.405Z,12.10
2018-12-27T12:29:33.450Z,12.97
2018-12-27T12:31:48.385Z,11.90
2018-12-27T12:34:03.300Z,12.70
2018-12-27T12:36:18.276Z,12.27
2018-12-27T12:38:33.360Z,12.67
2018-12-27T12:40:48.120Z,10.27
2018-12-27T12:43:03.355Z,12.33
2018-12-27T12:45:18.225Z,12.00
2018-12-27T12:47:33.124Z,12.60
2018-12-27T12:49:48.132Z,12.40
2018-12-27T12:52:03.176Z,12.73
2018-12-27T12:54:18.224Z,12.97
2018-12-27T12:56:33.005Z,12.60
2018-12-27T12:58:47.853Z,13.13
2018-12-27T13:01:02.978Z,12.97
2018-12-27T13:03:17.933Z,12.90
2018-12-27T13:05:32.893Z,13.27
2018-12-27T13:07:47.021Z,11.83
2018-12-27T13:10:02.009Z,12.07
2018-12-27T13:12:16.837Z,13.50
2018-12-27T13:14:31.920Z,13.10
2018-12-27T13:16:46.600Z,12.70
2018-12-27T13:19:01.645Z,12.73
2018-12-27T13:21:16.764Z,12.83
2018-12-27T13:23:31.337Z,12.03
2018-12-27T13:25:46.261Z,13.20
2018-12-27T13:28:01.237Z,12.63
2018-12-27T13:30:16.341Z,14.90
2018-12-27T13:32:31.280Z,13.60
2018-12-27T13:34:45.829Z,14.13
2018-12-27T13:37:00.679Z,12.47
2018-12-27T13:39:15.417Z,14.50
2018-12-27T13:41:30.277Z,12.63
2018-12-27T13:43:45.100Z,12.80
2018-12-27T13:46:00.021Z,13.60
2018-12-27T13:48:14.979Z,12.70
2018-12-27T13:50:29.820Z,14.57
2018-12-27T13:52:44.769Z,12.03
2018-12-27T13:54:59.672Z,12.07
2018-12-27T13:57:14.442Z,13.07
2018-12-27T13:59:29.300Z,13.50
2018-12-27T14:01:44.276Z,13.83
2018-12-27T14:03:59.189Z,14.50
2018-12-27T14:06:13.979Z,12.90
2018-12-27T14:08:28.972Z,11.80
2018-12-27T14:10:44.109Z,13.70
2018-12-27T14:12:58.821Z,12.90
2018-12-27T14:15:13.820Z,13.10
2018-12-27T14:17:28.904Z,12.70
2018-12-27T14:19:44.246Z,12.03
2018-12-27T14:21:58.984Z,12.87
2018-12-27T14:24:13.720Z,12.47
2018-12-27T14:26:28.084Z,11.40
2018-12-27T14:28:42.905Z,10.80
2018-12-27T14:30:57.661Z,12.00
2018-12-27T14:33:11.836Z,9.90
2018-12-27T14:35:26.608Z,11.60
2018-12-27T14:37:41.741Z,11.40
2018-12-27T14:39:56.493Z,12.00
2018-12-27T14:42:11.064Z,12.43
2018-12-27T14:44:25.920Z,12.40
2018-12-27T14:46:40.831Z,12.50
2018-12-27T14:48:55.784Z,11.60
2018-12-27T14:51:11.345Z,10.83
2018-12-27T14:53:26.745Z,11.93
2018-12-27T14:55:41.672Z,11.47
2018-12-27T14:57:56.295Z,12.33
2018-12-27T15:00:11.213Z,11.30
2018-12-27T15:05:06.312Z,11.07
2018-12-27T15:07:21.206Z,11.00
2018-12-27T15:09:36.268Z,11.53
2018-12-27T15:11:50.869Z,10.43
2018-12-27T15:14:05.652Z,11.13
2018-12-27T15:16:20.585Z,12.20
2018-12-27T15:18:35.557Z,10.70
2018-12-27T15:20:50.156Z,11.23
2018-12-27T15:25:45.049Z,10.60
2018-12-27T15:28:00.153Z,10.47
2018-12-27T15:30:14.768Z,10.90
2018-12-27T15:32:29.788Z,11.37
2018-12-27T15:34:44.902Z,10.43
2018-12-27T15:36:59.485Z,10.37
2018-12-27T15:39:14.297Z,10.40
2018-12-27T15:41:29.072Z,10.90
2018-12-27T15:43:43.948Z,11.00
2018-12-27T15:45:58.944Z,10.70
2018-12-27T15:48:13.833Z,11.30
2018-12-27T15:50:28.725Z,10.10
2018-12-27T15:52:43.534Z,10.50
2018-12-27T15:54:57.791Z,11.50
2018-12-27T15:57:12.684Z,11.20
2018-12-27T15:59:27.948Z,11.43
2018-12-27T16:01:42.844Z,11.10
2018-12-27T16:03:57.392Z,11.10
2018-12-27T16:06:12.493Z,10.30
2018-12-27T16:08:27.180Z,9.73
2018-12-27T16:10:42.117Z,9.97
2018-12-27T16:12:56.993Z,11.07
2018-12-27T16:15:11.816Z,10.67
2018-12-27T16:17:26.025Z,10.00
2018-12-27T16:19:41.025Z,9.97
2018-12-27T16:21:55.848Z,9.40
2018-12-27T16:24:10.676Z,8.70
2018-12-27T16:26:25.513Z,8.83
2018-12-27T16:28:40.645Z,8.50
2018-12-27T16:30:55.393Z,7.87
2018-12-27T16:33:10.341Z,8.40
2018-12-27T16:35:25.545Z,9.90
2018-12-27T16:37:40.292Z,8.23
2018-12-27T16:39:54.829Z,8.70
2018-12-27T16:42:09.704Z,9.27
2018-12-27T16:44:24.380Z,8.43
2018-12-27T16:46:39.476Z,9.23
2018-12-27T16:48:54.289Z,9.80
2018-12-27T16:51:09.240Z,9.57
2018-12-27T16:53:24.040Z,9.70
2018-12-27T16:55:38.693Z,8.30
2018-12-27T16:57:53.632Z,8.30
2018-12-27T17:00:08.714Z,7.83
2018-12-27T17:02:23.806Z,8.87
2018-12-27T17:07:16.126Z,8.47
2018-12-27T17:09:30.640Z,8.23
2018-12-27T17:11:45.400Z,8.63
2018-12-27T17:14:00.291Z,8.57
2018-12-27T17:16:15.241Z,9.07
2018-12-27T17:18:30.076Z,9.47
2018-12-27T17:20:45.228Z,8.63
2018-12-27T17:22:59.963Z,9.60
2018-12-27T17:25:15.066Z,9.13
2018-12-27T17:27:32.706Z,9.23
2018-12-27T17:29:47.806Z,8.90
2018-12-27T17:32:02.690Z,8.90
2018-12-27T17:34:17.794Z,10.40
2018-12-27T17:36:32.480Z,8.73
2018-12-27T17:38:47.321Z,8.27
2018-12-27T17:41:02.313Z,7.80
2018-12-27T17:43:17.201Z,8.07
2018-12-27T17:45:31.282Z,8.37
2018-12-27T17:47:46.336Z,8.40
2018-12-27T17:50:01.377Z,8.20
2018-12-27T17:52:16.153Z,8.27
2018-12-27T17:54:31.152Z,8.33
2018-12-27T17:56:46.042Z,8.40
2018-12-27T17:59:00.204Z,8.23
2018-12-27T18:01:15.075Z,8.90
2018-12-27T18:08:56.721Z,7.67
2018-12-27T18:11:11.640Z,8.33
2018-12-27T18:13:26.629Z,8.83
2018-12-27T18:15:41.399Z,9.40
2018-12-27T18:17:56.325Z,7.50
2018-12-27T18:20:11.480Z,8.40
2018-12-27T18:22:26.276Z,8.20
2018-12-27T18:24:41.384Z,8.87
2018-12-27T18:26:56.354Z,8.20
2018-12-27T18:29:11.625Z,8.13
2018-12-27T18:31:26.425Z,8.23
2018-12-27T18:33:40.967Z,8.47
2018-12-27T18:35:55.840Z,7.83
2018-12-27T18:38:10.768Z,7.67
2018-12-27T18:40:25.496Z,7.80
2018-12-27T18:42:40.609Z,8.07
2018-12-27T18:44:55.276Z,7.47
2018-12-27T18:47:10.493Z,8.13
2018-12-27T18:49:25.193Z,7.33
2018-12-27T18:51:40.072Z,8.13
2018-12-27T18:53:54.224Z,9.17
2018-12-27T18:56:09.464Z,9.10
2018-12-27T18:58:24.290Z,8.03
2018-12-27T19:00:39.129Z,9.00
2018-12-27T19:02:53.665Z,9.30
2018-12-27T19:05:08.728Z,9.80
2018-12-27T19:07:23.629Z,8.20
2018-12-27T19:09:38.572Z,8.60
2018-12-27T19:11:53.654Z,9.10
2018-12-27T19:14:08.336Z,9.20
2018-12-27T19:16:23.268Z,9.70
2018-12-27T19:18:38.681Z,9.07
2018-12-27T19:20:53.232Z,9.83
2018-12-27T19:23:08.094Z,10.53
2018-12-27T19:25:22.973Z,10.23
2018-12-27T19:27:38.145Z,9.57
2018-12-27T19:29:53.025Z,10.37
2018-12-27T19:32:07.888Z,9.87
2018-12-27T19:34:22.773Z,9.40
2018-12-27T19:36:37.487Z,9.30
2018-12-27T19:38:52.580Z,10.30
2018-12-27T19:41:07.426Z,9.80
2018-12-27T19:43:22.208Z,9.90
2018-12-27T19:45:37.293Z,10.03
2018-12-27T19:47:52.381Z,9.97
2018-12-27T19:50:07.161Z,9.43
2018-12-27T19:52:22.281Z,10.70
2018-12-27T19:54:37.408Z,9.03
2018-12-27T19:56:52.108Z,10.33
2018-12-27T19:59:07.228Z,10.23
2018-12-27T20:01:22.208Z,10.20
2018-12-27T20:03:37.216Z,11.20
2018-12-27T20:05:52.409Z,9.40
2018-12-27T20:08:07.193Z,10.63
2018-12-27T20:10:22.002Z,10.23
2018-12-27T20:12:37.061Z,11.43
2018-12-27T20:14:51.941Z,11.20
2018-12-27T20:17:06.084Z,10.40
2018-12-27T20:19:21.060Z,11.73
2018-12-27T20:21:36.188Z,10.93
2018-12-27T20:23:51.068Z,12.47
2018-12-27T20:26:06.204Z,11.33
2018-12-27T20:28:20.896Z,11.53
2018-12-27T20:30:35.816Z,11.80
2018-12-27T20:32:50.706Z,11.70
2018-12-27T20:35:05.529Z,12.23
2018-12-27T20:37:20.437Z,11.77
2018-12-27T20:39:35.525Z,10.70
2018-12-27T20:41:49.759Z,11.13
2018-12-27T20:44:04.824Z,10.70
2018-12-27T20:46:19.772Z,11.07
2018-12-27T20:48:34.160Z,10.77
2018-12-27T20:50:49.029Z,12.43
2018-12-27T20:53:04.336Z,11.10
2018-12-27T20:55:19.057Z,10.67
2018-12-27T20:57:34.009Z,11.00
2018-12-27T20:59:49.025Z,11.77
2018-12-27T21:04:51.093Z,11.27
2018-12-27T21:07:05.538Z,11.60
2018-12-27T21:09:19.712Z,11.63
2018-12-27T21:11:34.741Z,11.07
2018-12-27T21:13:49.609Z,12.30
2018-12-27T21:16:04.865Z,11.33
2018-12-27T21:18:19.527Z,11.10
2018-12-27T21:20:34.525Z,12.53
2018-12-27T21:22:49.320Z,12.67
2018-12-27T21:25:04.150Z,12.83
2018-12-27T21:27:19.134Z,12.23
2018-12-27T21:29:34.092Z,12.87
2018-12-27T21:31:49.213Z,12.70
2018-12-27T21:34:03.990Z,12.03
2018-12-27T21:36:18.769Z,13.17
2018-12-27T21:38:33.836Z,11.70
2018-12-27T21:40:48.812Z,12.30
2018-12-27T21:43:03.720Z,12.10
2018-12-27T21:45:18.522Z,12.30
2018-12-27T21:47:33.341Z,13.60
2018-12-27T21:49:48.337Z,12.60
2018-12-27T21:52:03.385Z,13.20
2018-12-27T21:54:18.428Z,12.00
2018-12-27T21:56:33.176Z,13.73
2018-12-27T21:58:48.237Z,13.10
2018-12-27T22:01:03.101Z,12.93
2018-12-27T22:03:17.912Z,12.50
2018-12-27T22:05:32.921Z,13.47
2018-12-27T22:07:47.812Z,13.27
2018-12-27T22:10:02.744Z,13.53
2018-12-27T22:12:17.580Z,14.60
2018-12-27T22:14:32.408Z,14.10
2018-12-27T22:16:47.364Z,14.53
2018-12-27T22:19:02.184Z,14.70
2018-12-27T22:21:17.188Z,13.13
2018-12-27T22:23:32.327Z,14.37
2018-12-27T22:25:46.954Z,14.73
2018-12-27T22:28:01.929Z,14.17
2018-12-27T22:30:17.044Z,14.40
2018-12-27T22:32:31.896Z,14.33
2018-12-27T22:34:45.960Z,14.90
2018-12-27T22:37:00.929Z,15.27
2018-12-27T22:42:02.761Z,14.80
2018-12-27T22:44:17.844Z,13.57
2018-12-27T22:46:32.607Z,15.43
2018-12-27T22:48:47.599Z,16.57
2018-12-27T22:51:02.704Z,15.53
2018-12-27T22:53:17.416Z,16.50
2018-12-27T22:55:32.529Z,16.20
2018-12-27T22:57:47.496Z,15.93
2018-12-27T23:00:02.933Z,16.07
2018-12-27T23:02:17.245Z,15.80
2018-12-27T23:04:32.600Z,16.60
2018-12-27T23:06:46.941Z,15.10
2018-12-27T23:09:01.706Z,16.77
2018-12-27T23:11:16.620Z,17.67
2018-12-27T23:13:31.620Z,18.27
2018-12-27T23:15:46.685Z,17.20
2018-12-27T23:18:01.293Z,16.93
2018-12-27T23:20:15.937Z,18.03
2018-12-27T23:22:30.083Z,16.13
2018-12-27T23:24:45.056Z,16.70
2018-12-27T23:27:00.292Z,17.47
2018-12-27T23:29:15.210Z,16.47
2018-12-27T23:31:29.997Z,17.17
2018-12-27T23:33:44.937Z,17.50
2018-12-27T23:35:59.901Z,17.60
2018-12-27T23:38:14.753Z,16.57
2018-12-27T23:43:16.596Z,15.70
2018-12-27T23:45:31.553Z,17.10
2018-12-27T23:47:49.579Z,16.43
2018-12-27T23:50:04.548Z,16.00
2018-12-27T23:52:19.381Z,16.60
2018-12-27T23:54:34.272Z,17.93
2018-12-27T23:56:49.072Z,15.97
2018-12-27T23:59:04.069Z,16.37
